Unionville, Ohio
Current Conditions -  °F | °C
As of 12:34 AM on Sunday 26 Oct 2014 (Local Time) from KMRT Reporting Station
Clear Clear  
Wind Chill: 53°   Ceiling: Unl
Heat Index: 53°   Visibility: 10mi
Dew Point: 38°   Wind: 7mph
Humidity: 57%   Direction: 310°NW
Pressure: 29.89"   Gusts: NA
Location:  40.14°N, 83.34°W
Report Text: KMRT 260434Z AUTO 31006KT 10SM CLR 12/04 A2989 RMK AO2 T01190035
Loading
Personal Weather Stations






























Interactive Weather Map
Tropical Storm Tracking
New forecast layout! Learn more

10-Day Weather Forecast

Advertisements
Track Severe Weather on mobile